Time;durP1;ratioP1;P1;durP2;ratioP2;P2;SDS_P1;SDS_P2;PMS_P1;PMS_P2;Temp;Humidity;BMP_temperature;BMP_pressure;BME280_temperature;BME280_humidity;BME280_pressure;Samples;Min_cycle;Max_cycle;Signal;HPM_P1;HPM_P2
2023/08/11 00:01:05;;;;;;;5.37;3.20;;;;;;;19.73;65.39;101029.16;4897918;29;20204;-65
2023/08/11 00:03:35;;;;;;;8.20;3.00;;;;;;;19.71;65.95;101025.81;4897021;29;20608;-64
2023/08/11 00:06:06;;;;;;;5.60;3.20;;;;;;;19.77;65.58;101027.75;4896817;29;20223;-67
2023/08/11 00:08:36;;;;;;;8.43;3.67;;;;;;;19.76;65.27;101018.84;4898219;29;20237;-66
2023/08/11 00:11:04;;;;;;;5.00;3.73;;;;;;;19.68;65.08;101027.06;4897004;29;20664;-67
2023/08/11 00:13:33;;;;;;;7.43;3.20;;;;;;;19.67;64.97;101035.31;4896963;29;20675;-66
2023/08/11 00:16:02;;;;;;;6.77;3.40;;;;;;;19.66;65.26;101034.47;4896468;29;20267;-64
2023/08/11 00:18:29;;;;;;;5.20;3.03;;;;;;;19.66;65.20;101047.94;4897928;29;20220;-69
2023/08/11 00:21:00;;;;;;;5.30;2.73;;;;;;;19.75;64.23;101041.38;4897512;29;20209;-62
2023/08/11 00:23:27;;;;;;;8.50;3.70;;;;;;;19.61;64.68;101058.44;4896101;29;20315;-66
2023/08/11 00:25:55;;;;;;;4.27;2.73;;;;;;;19.55;64.55;101064.56;4895657;29;20233;-65
2023/08/11 00:28:23;;;;;;;5.70;3.13;;;;;;;19.50;64.51;101067.03;4896949;29;20711;-69
2023/08/11 00:30:53;;;;;;;6.07;3.10;;;;;;;19.44;64.72;101065.03;4899019;29;20296;-69
2023/08/11 00:33:21;;;;;;;6.70;3.20;;;;;;;19.39;65.03;101065.63;4897723;29;20252;-68
2023/08/11 00:35:48;;;;;;;4.90;3.03;;;;;;;19.34;65.30;101067.25;4898420;29;20553;-65
2023/08/11 00:38:16;;;;;;;5.27;3.30;;;;;;;19.31;65.39;101070.31;4892864;29;20209;-63
2023/08/11 00:40:44;;;;;;;4.77;2.93;;;;;;;19.34;65.34;101073.47;4895081;29;20324;-65
2023/08/11 00:43:12;;;;;;;4.00;2.70;;;;;;;19.30;64.77;101065.94;4896553;29;20252;-64
2023/08/11 00:45:45;;;;;;;5.43;2.47;;;;;;;19.28;65.38;101068.81;4896568;29;20348;-64
2023/08/11 00:48:15;;;;;;;6.90;2.90;;;;;;;19.29;65.77;101067.81;4897548;29;20197;-66
2023/08/11 00:50:43;;;;;;;7.80;2.70;;;;;;;19.25;65.62;101065.69;4898024;29;20284;-67
2023/08/11 00:53:11;;;;;;;5.67;2.77;;;;;;;19.21;65.77;101069.78;4895303;29;20216;-64
2023/08/11 00:55:39;;;;;;;8.00;3.30;;;;;;;19.23;65.57;101060.50;4897724;29;20682;-64
2023/08/11 00:58:08;;;;;;;4.77;3.17;;;;;;;19.12;66.16;101069.88;4894203;29;20217;-64
2023/08/11 01:00:37;;;;;;;3.93;2.90;;;;;;;19.09;67.03;101064.03;4899135;29;20247;-65
2023/08/11 01:03:05;;;;;;;6.13;3.27;;;;;;;19.05;67.19;101071.66;4893754;29;20304;-66
2023/08/11 01:05:39;;;;;;;7.10;3.50;;;;;;;19.07;67.25;101064.25;4894710;29;20277;-64
2023/08/11 01:08:21;;;;;;;8.03;3.60;;;;;;;19.09;67.52;101072.09;4895215;29;20265;-66
2023/08/11 01:10:59;;;;;;;4.90;3.00;;;;;;;19.05;67.63;101071.66;4897909;29;20201;-65
2023/08/11 01:13:30;;;;;;;5.10;3.83;;;;;;;19.05;67.07;101073.53;4897971;29;20259;-64
2023/08/11 01:15:59;;;;;;;7.50;3.83;;;;;;;19.04;67.28;101067.31;4903614;29;20281;-63
2023/08/11 01:18:29;;;;;;;6.67;4.30;;;;;;;19.00;67.88;101060.63;4907470;29;20215;-63
2023/08/11 01:21:03;;;;;;;5.87;4.30;;;;;;;19.02;67.72;101068.50;4900578;29;20209;-63
2023/08/11 01:23:34;;;;;;;6.47;4.20;;;;;;;18.98;68.31;101057.31;4899397;29;20212;-65
2023/08/11 01:26:02;;;;;;;4.43;3.47;;;;;;;19.02;67.48;101061.28;4902061;29;20309;-63
2023/08/11 01:28:29;;;;;;;5.33;3.43;;;;;;;18.93;67.68;101054.34;4901096;29;20248;-66
2023/08/11 01:30:57;;;;;;;6.80;4.13;;;;;;;18.82;67.77;101046.81;4897003;29;20269;-68
2023/08/11 01:33:25;;;;;;;8.67;3.87;;;;;;;18.71;68.64;101049.97;4896717;29;20220;-63
2023/08/11 01:35:53;;;;;;;10.87;3.80;;;;;;;18.71;68.87;101047.28;4896943;29;20261;-69
2023/08/11 01:38:20;;;;;;;7.57;3.20;;;;;;;18.72;68.78;101046.25;4896728;29;20209;-63
2023/08/11 01:40:50;;;;;;;6.23;3.07;;;;;;;18.74;68.57;101053.09;4894824;29;20671;-67
2023/08/11 01:43:18;;;;;;;6.10;3.17;;;;;;;18.74;68.50;101044.19;4900061;29;20348;-68
2023/08/11 01:45:48;;;;;;;8.90;3.20;;;;;;;18.71;68.38;101039.22;4899955;29;20252;-69
2023/08/11 01:48:19;;;;;;;5.57;3.07;;;;;;;18.70;68.62;101038.38;4900104;29;20569;-66
2023/08/11 01:50:47;;;;;;;6.53;3.53;;;;;;;18.76;68.54;101039.47;4902813;29;20324;-63
2023/08/11 01:53:15;;;;;;;6.70;3.30;;;;;;;18.76;68.32;101037.63;4900798;29;20205;-65
2023/08/11 01:55:44;;;;;;;6.90;3.30;;;;;;;18.80;67.79;101035.41;4898222;29;20273;-63
2023/08/11 01:58:14;;;;;;;7.30;3.43;;;;;;;18.72;68.28;101039.03;4898178;29;20679;-63
2023/08/11 02:00:42;;;;;;;5.53;3.60;;;;;;;18.70;68.60;101035.69;4896645;29;20325;-64
2023/08/11 02:03:09;;;;;;;5.80;3.47;;;;;;;18.68;68.69;101040.41;4899809;29;20597;-65
2023/08/11 02:05:37;;;;;;;7.70;3.97;;;;;;;18.63;68.61;101033.94;4897881;29;20746;-66
2023/08/11 02:08:06;;;;;;;7.47;3.60;;;;;;;18.58;69.24;101023.75;4897069;29;20268;-65
2023/08/11 02:10:34;;;;;;;5.33;3.20;;;;;;;18.58;69.41;101030.97;4898981;29;20214;-68
2023/08/11 02:13:02;;;;;;;7.90;3.27;;;;;;;18.57;69.54;101031.97;4897170;29;20228;-65
2023/08/11 02:15:31;;;;;;;4.80;3.10;;;;;;;18.59;69.62;101036.16;4896321;29;21167;-62
2023/08/11 02:17:58;;;;;;;5.77;3.47;;;;;;;18.58;68.94;101023.75;4897155;29;20301;-65
2023/08/11 02:20:26;;;;;;;6.90;3.27;;;;;;;18.59;68.70;101036.16;4898481;29;20221;-62
2023/08/11 02:22:54;;;;;;;5.00;3.03;;;;;;;18.56;68.87;101024.94;4899302;29;21610;-69
2023/08/11 02:25:24;;;;;;;4.43;3.03;;;;;;;18.55;69.73;101034.84;4899209;29;20233;-66
2023/08/11 02:27:52;;;;;;;6.30;3.20;;;;;;;18.51;69.73;101030.84;4896549;29;20217;-63
2023/08/11 02:30:21;;;;;;;5.30;3.20;;;;;;;18.48;69.74;101028.53;4895995;29;20302;-63
2023/08/11 02:32:51;;;;;;;4.83;2.93;;;;;;;18.42;70.17;101024.75;4895718;29;20213;-63
2023/08/11 02:35:19;;;;;;;5.07;3.43;;;;;;;18.43;70.29;101025.59;4898531;29;20216;-63
2023/08/11 02:37:46;;;;;;;4.80;3.20;;;;;;;18.47;69.87;101031.44;4899495;29;20269;-64
2023/08/11 02:40:15;;;;;;;6.17;2.90;;;;;;;18.45;70.25;101023.56;4896561;29;20284;-66
2023/08/11 02:42:45;;;;;;;5.70;3.00;;;;;;;18.45;70.33;101025.41;4898741;29;20240;-66
2023/08/11 02:45:13;;;;;;;4.90;3.10;;;;;;;18.51;69.81;101028.16;4897174;29;20319;-65
2023/08/11 02:47:41;;;;;;;6.87;3.60;;;;;;;18.46;70.03;101030.59;4896835;29;21339;-67
2023/08/11 02:50:11;;;;;;;8.70;3.20;;;;;;;18.41;69.95;101027.63;4899556;29;20684;-66
2023/08/11 02:52:39;;;;;;;8.93;3.20;;;;;;;18.42;68.93;101024.75;4897144;29;20245;-66
2023/08/11 02:55:08;;;;;;;8.23;3.43;;;;;;;18.40;69.35;101025.94;4903456;29;20221;-64
2023/08/11 02:57:36;;;;;;;6.47;3.17;;;;;;;18.32;70.17;101023.34;4902681;29;20209;-64
2023/08/11 03:00:09;;;;;;;6.67;3.37;;;;;;;18.29;70.39;101029.94;4898740;29;20697;-63
2023/08/11 03:02:37;;;;;;;5.97;3.43;;;;;;;18.28;70.34;101025.59;4910563;29;20630;-62
2023/08/11 03:05:07;;;;;;;8.20;3.20;;;;;;;18.31;69.93;101030.56;4905059;29;20241;-63
2023/08/11 03:07:38;;;;;;;6.90;3.87;;;;;;;18.25;70.50;101038.53;4897824;29;20222;-63
2023/08/11 03:10:07;;;;;;;5.67;3.20;;;;;;;18.23;70.30;101036.03;4902559;29;20695;-63
2023/08/11 03:12:35;;;;;;;7.07;3.43;;;;;;;18.08;71.14;101037.88;4900206;29;20213;-66
2023/08/11 03:15:05;;;;;;;5.60;3.40;;;;;;;18.00;72.13;101040.66;4906585;29;20232;-63
2023/08/11 03:17:35;;;;;;;7.00;3.53;;;;;;;18.02;71.24;101039.44;4901112;29;20209;-65
2023/08/11 03:20:07;;;;;;;9.30;3.93;;;;;;;18.01;71.08;101035.09;4908448;29;20205;-64
2023/08/11 03:22:36;;;;;;;7.47;3.90;;;;;;;17.99;71.41;101029.06;4904833;29;20206;-65
2023/08/11 03:25:04;;;;;;;5.93;3.50;;;;;;;17.98;71.23;101027.41;4910394;29;20301;-63
2023/08/11 03:27:34;;;;;;;8.27;3.67;;;;;;;17.84;72.06;101035.44;4899772;29;20292;-66
2023/08/11 03:30:02;;;;;;;5.10;3.37;;;;;;;17.80;72.63;101034.13;4910694;29;20205;-63
2023/08/11 03:32:30;;;;;;;7.37;3.97;;;;;;;17.89;72.11;101035.72;4907631;29;20213;-65
2023/08/11 03:34:58;;;;;;;8.40;4.90;;;;;;;17.89;72.16;101039.22;4905515;29;20299;-63
2023/08/11 03:37:26;;;;;;;6.23;3.37;;;;;;;17.95;71.66;101045.72;4902850;29;20627;-62
2023/08/11 03:39:55;;;;;;;6.20;2.97;;;;;;;17.95;71.53;101048.38;4903337;29;20296;-63
2023/08/11 03:42:23;;;;;;;5.33;3.37;;;;;;;17.94;71.93;101052.91;4901029;29;20312;-62
2023/08/11 03:44:51;;;;;;;4.73;3.17;;;;;;;17.93;71.59;101050.44;4899250;29;20581;-63
2023/08/11 03:47:19;;;;;;;4.93;3.53;;;;;;;17.90;71.90;101050.78;4899647;29;20241;-63
2023/08/11 03:49:47;;;;;;;6.23;3.57;;;;;;;17.88;72.11;101053.66;4904190;29;20722;-64
2023/08/11 03:52:15;;;;;;;6.97;3.30;;;;;;;17.88;71.95;101052.81;4903178;29;20241;-64
2023/08/11 03:54:43;;;;;;;5.47;3.30;;;;;;;17.88;71.91;101058.19;4904502;29;20731;-62
2023/08/11 03:57:14;;;;;;;5.70;3.27;;;;;;;17.89;71.64;101059.84;4902962;29;20209;-64
2023/08/11 03:59:42;;;;;;;9.50;3.70;;;;;;;17.85;71.28;101055.88;4905394;29;20261;-63
2023/08/11 04:02:10;;;;;;;6.70;3.67;;;;;;;17.83;71.64;101050.69;4899826;29;20214;-63
2023/08/11 04:04:37;;;;;;;7.07;3.60;;;;;;;17.81;71.32;101055.41;4901023;29;20620;-63
2023/08/11 04:07:06;;;;;;;5.57;3.10;;;;;;;17.78;70.92;101057.59;4907193;29;20289;-66
2023/08/11 04:09:34;;;;;;;5.93;3.60;;;;;;;17.76;71.15;101056.97;4898793;29;20241;-67
2023/08/11 04:12:02;;;;;;;7.77;3.20;;;;;;;17.71;71.63;101057.50;4902136;29;20233;-67
2023/08/11 04:14:31;;;;;;;8.30;4.27;;;;;;;17.71;71.29;101049.44;4904884;29;20209;-66
2023/08/11 04:16:59;;;;;;;5.90;3.83;;;;;;;17.72;71.38;101055.66;4903234;29;20272;-63
2023/08/11 04:19:27;;;;;;;5.03;3.20;;;;;;;17.78;71.54;101052.22;4898682;29;20224;-63
2023/08/11 04:21:55;;;;;;;7.53;3.57;;;;;;;17.74;71.98;101050.94;4902298;29;20288;-64
2023/08/11 04:24:23;;;;;;;6.73;3.63;;;;;;;17.71;71.91;101057.50;4898924;29;20558;-63
2023/08/11 04:26:51;;;;;;;5.97;3.27;;;;;;;17.73;71.77;101065.38;4900611;29;20535;-63
2023/08/11 04:29:19;;;;;;;4.83;3.10;;;;;;;17.71;71.64;101057.50;4905047;29;20544;-62
2023/08/11 04:31:48;;;;;;;6.53;3.87;;;;;;;17.72;71.37;101059.16;4903690;29;20216;-67
2023/08/11 04:34:16;;;;;;;6.43;3.63;;;;;;;17.74;71.02;101056.31;4902562;29;20276;-61
2023/08/11 04:36:44;;;;;;;8.57;4.07;;;;;;;17.84;70.86;101065.78;4910345;29;20636;-65
2023/08/11 04:39:12;;;;;;;5.83;3.20;;;;;;;17.85;71.29;101066.63;4904972;29;20224;-61
2023/08/11 04:41:40;;;;;;;7.23;4.10;;;;;;;17.83;70.93;101063.28;4907319;29;20324;-63
2023/08/11 04:44:08;;;;;;;8.10;3.90;;;;;;;17.82;71.04;101062.44;4905300;29;20237;-62
2023/08/11 04:46:36;;;;;;;7.63;3.40;;;;;;;17.82;71.52;101059.75;4905992;29;20236;-64
2023/08/11 04:49:05;;;;;;;6.67;3.77;;;;;;;17.85;71.40;101064.78;4900886;29;20241;-63
2023/08/11 04:51:33;;;;;;;9.80;3.87;;;;;;;17.87;71.34;101068.09;4902144;29;20209;-64
2023/08/11 04:54:02;;;;;;;8.00;3.77;;;;;;;17.87;71.96;101065.41;4900456;29;20233;-66
2023/08/11 04:56:30;;;;;;;8.47;4.27;;;;;;;17.89;71.62;101068.75;4899498;29;20247;-69
2023/08/11 04:58:58;;;;;;;8.13;3.87;;;;;;;17.92;71.64;101070.25;4900189;29;20264;-62
2023/08/11 05:01:26;;;;;;;7.77;3.90;;;;;;;17.95;71.11;101069.84;4901141;29;20220;-65
2023/08/11 05:03:54;;;;;;;9.03;3.93;;;;;;;17.99;70.84;101065.81;4901077;29;20667;-63
2023/08/11 05:06:26;;;;;;;6.17;3.73;;;;;;;18.04;71.00;101071.44;4909189;29;20233;-68
2023/08/11 05:08:54;;;;;;;8.07;4.17;;;;;;;18.11;70.75;101071.56;4896615;29;20299;-67
2023/08/11 05:11:22;;;;;;;7.83;3.90;;;;;;;18.10;71.11;101078.78;4896312;29;20842;-64
2023/08/11 05:13:49;;;;;;;9.73;4.23;;;;;;;18.10;71.20;101073.44;4901689;29;20591;-67
2023/08/11 05:16:17;;;;;;;6.93;3.93;;;;;;;18.12;70.81;101081.31;4896245;29;20292;-65
2023/08/11 05:18:45;;;;;;;7.47;4.03;;;;;;;18.15;70.67;101083.59;4899084;29;20213;-65
2023/08/11 05:21:13;;;;;;;5.53;3.90;;;;;;;18.17;70.47;101085.09;4896213;29;20297;-64
2023/08/11 05:23:42;;;;;;;9.17;4.00;;;;;;;18.22;70.29;101082.69;4902540;29;20223;-64
2023/08/11 05:26:10;;;;;;;7.90;4.80;;;;;;;18.25;70.51;101087.69;4898287;29;20379;-68
2023/08/11 05:28:38;;;;;;;8.53;3.60;;;;;;;18.27;70.04;101092.88;4902497;29;20316;-66
2023/08/11 05:31:06;;;;;;;6.27;4.20;;;;;;;18.31;70.15;101091.50;4900563;29;20213;-66
2023/08/11 05:33:33;;;;;;;8.13;4.97;;;;;;;18.33;69.87;101098.34;4902764;29;20345;-65
2023/08/11 05:36:01;;;;;;;12.00;4.93;;;;;;;18.36;69.24;101089.94;4901600;29;20296;-64
2023/08/11 05:38:29;;;;;;;9.83;4.93;;;;;;;18.42;68.82;101086.50;4900944;29;20803;-68
2023/08/11 05:40:58;;;;;;;8.33;4.53;;;;;;;18.50;68.60;101090.94;4901070;29;20245;-64
2023/08/11 05:43:26;;;;;;;6.83;4.43;;;;;;;18.50;68.81;101090.13;4900791;29;20333;-68
2023/08/11 05:45:53;;;;;;;6.93;3.77;;;;;;;18.53;68.19;101092.44;4899163;29;20264;-63
2023/08/11 05:48:21;;;;;;;9.87;5.03;;;;;;;18.55;68.46;101082.34;4899961;29;20221;-64
2023/08/11 05:50:50;;;;;;;10.13;4.93;;;;;;;18.59;68.83;101089.03;4901071;29;20565;-69
2023/08/11 05:53:18;;;;;;;8.97;4.97;;;;;;;18.63;69.03;101085.81;4900118;29;20209;-68
2023/08/11 05:55:45;;;;;;;12.23;6.07;;;;;;;18.66;69.08;101095.34;4901110;29;20878;-63
2023/08/11 05:58:15;;;;;;;9.03;5.67;;;;;;;18.70;69.24;101083.22;4901417;29;20209;-64
2023/08/11 06:00:42;;;;;;;13.13;6.17;;;;;;;18.74;68.94;101092.53;4900081;29;20209;-64
2023/08/11 06:03:10;;;;;;;11.57;5.80;;;;;;;18.77;69.30;101101.09;4900944;29;20209;-64
2023/08/11 06:05:38;;;;;;;15.73;4.87;;;;;;;18.82;68.91;101099.69;4901866;29;20213;-66
2023/08/11 06:08:06;;;;;;;9.70;5.00;;;;;;;18.85;68.89;101100.16;4896565;29;20704;-63
2023/08/11 06:10:34;;;;;;;12.10;5.00;;;;;;;18.88;68.62;101091.72;4901333;29;20763;-66
2023/08/11 06:13:01;;;;;;;9.17;4.10;;;;;;;18.91;68.65;101093.22;4902479;29;20213;-66
2023/08/11 06:15:31;;;;;;;8.80;4.10;;;;;;;18.93;68.58;101097.34;4897780;29;20320;-66
2023/08/11 06:17:58;;;;;;;14.30;5.57;;;;;;;19.00;68.64;101098.25;4900663;29;20601;-66
2023/08/11 06:20:27;;;;;;;9.07;4.60;;;;;;;19.02;68.76;101101.59;4901039;29;20703;-68
2023/08/11 06:23:08;;;;;;;9.97;4.40;;;;;;;19.04;69.01;101099.56;4900598;29;20202;-66
2023/08/11 06:25:35;;;;;;;11.23;4.97;;;;;;;19.10;68.65;101098.81;4898179;29;20296;-64
2023/08/11 06:28:04;;;;;;;11.60;4.67;;;;;;;19.13;68.15;101098.44;4898099;29;20797;-64
2023/08/11 06:30:33;;;;;;;12.60;4.93;;;;;;;19.17;68.01;101098.91;4900588;29;20209;-68
2023/08/11 06:33:01;;;;;;;9.80;5.13;;;;;;;19.24;67.55;101098.97;4895973;29;20217;-64
2023/08/11 06:35:30;;;;;;;9.67;4.67;;;;;;;19.28;68.18;101100.25;4895998;29;20221;-67
2023/08/11 06:37:59;;;;;;;8.40;5.00;;;;;;;19.30;67.74;101096.34;4896392;29;20218;-64
2023/08/11 06:40:27;;;;;;;10.13;4.20;;;;;;;19.35;67.06;101099.28;4900446;29;20205;-71
2023/08/11 06:42:54;;;;;;;7.23;4.17;;;;;;;19.42;66.98;101099.41;4900023;29;20301;-64
2023/08/11 06:45:22;;;;;;;8.17;4.63;;;;;;;19.50;66.60;101094.75;4905100;29;20257;-66
2023/08/11 06:47:51;;;;;;;8.90;5.03;;;;;;;19.54;66.63;101097.88;4900469;29;21153;-62
2023/08/11 06:50:19;;;;;;;7.90;4.73;;;;;;;19.58;66.62;101101.88;4898404;29;20220;-69
2023/08/11 06:52:47;;;;;;;14.23;5.30;;;;;;;19.60;66.59;101107.06;4902189;29;20224;-68
2023/08/11 06:55:15;;;;;;;11.20;4.43;;;;;;;19.65;66.75;101107.31;4900515;29;20213;-63
2023/08/11 06:57:43;;;;;;;12.27;4.77;;;;;;;19.72;66.34;101105.50;4898456;29;20214;-64
2023/08/11 07:00:12;;;;;;;8.80;4.30;;;;;;;19.73;66.50;101107.19;4899902;29;20209;-66
2023/08/11 07:02:39;;;;;;;6.87;4.30;;;;;;;19.78;66.64;101110.13;4898883;29;20213;-66
2023/08/11 07:05:10;;;;;;;8.63;5.00;;;;;;;19.83;66.69;101116.59;4896517;29;20209;-69
2023/08/11 07:07:37;;;;;;;11.90;4.63;;;;;;;19.87;66.65;101117.91;4898992;29;20237;-65
2023/08/11 07:10:06;;;;;;;10.23;4.13;;;;;;;19.91;66.38;101127.22;4900050;29;20296;-67
2023/08/11 07:12:34;;;;;;;7.90;4.67;;;;;;;19.96;67.13;101121.28;4900823;29;20216;-66
2023/08/11 07:15:03;;;;;;;10.03;4.43;;;;;;;19.99;66.40;101120.88;4897966;29;20300;-68
2023/08/11 07:17:30;;;;;;;9.83;4.23;;;;;;;20.02;66.11;101117.81;4898773;29;20795;-65
2023/08/11 07:19:58;;;;;;;10.67;4.17;;;;;;;20.10;65.93;101122.22;4898028;29;20215;-67
2023/08/11 07:22:28;;;;;;;8.57;4.20;;;;;;;20.14;65.15;101118.94;4901424;29;20209;-66
2023/08/11 07:24:55;;;;;;;12.10;4.50;;;;;;;20.21;65.84;101124.38;4899463;29;20272;-64
2023/08/11 07:27:23;;;;;;;6.50;4.00;;;;;;;20.25;65.45;101125.63;4901410;29;20237;-65
2023/08/11 07:29:51;;;;;;;9.70;4.37;;;;;;;20.32;65.50;101121.13;4898501;29;20708;-68
2023/08/11 07:32:19;;;;;;;6.93;4.20;;;;;;;20.39;65.44;101130.16;4895265;29;20213;-67
2023/08/11 07:34:47;;;;;;;8.47;3.90;;;;;;;20.46;64.25;101128.34;4900717;29;20268;-65
2023/08/11 07:37:14;;;;;;;8.30;3.57;;;;;;;20.50;64.61;101129.59;4900210;29;20295;-65
2023/08/11 07:39:44;;;;;;;8.77;3.77;;;;;;;20.59;64.12;101119.47;4899362;29;20216;-66
2023/08/11 07:42:11;;;;;;;8.60;3.53;;;;;;;20.67;63.62;101124.72;4900043;29;20248;-64
2023/08/11 07:44:40;;;;;;;6.87;3.87;;;;;;;20.77;63.61;101127.88;4898311;29;20244;-63
2023/08/11 07:47:07;;;;;;;6.27;3.83;;;;;;;20.88;63.76;101121.09;4895109;29;20236;-63
2023/08/11 07:49:35;;;;;;;6.40;3.33;;;;;;;20.97;62.77;101115.34;4900898;29;20257;-63
2023/08/11 07:52:03;;;;;;;6.53;3.53;;;;;;;21.06;63.19;101113.31;4897654;29;20239;-65
2023/08/11 07:54:31;;;;;;;10.13;3.30;;;;;;;21.16;63.09;101118.34;4897814;29;20506;-67
2023/08/11 07:57:01;;;;;;;9.03;4.13;;;;;;;21.25;63.15;101123.38;4894908;29;20696;-66
2023/08/11 07:59:28;;;;;;;8.07;3.83;;;;;;;21.36;62.60;101124.69;4897287;29;20210;-66
2023/08/11 08:01:56;;;;;;;7.37;3.70;;;;;;;21.47;62.41;101120.53;4900203;29;20690;-66
2023/08/11 08:04:24;;;;;;;9.80;4.30;;;;;;;21.60;61.05;101116.00;4898578;29;20213;-65
2023/08/11 08:06:52;;;;;;;6.87;3.10;;;;;;;21.78;60.67;101123.50;4898590;29;20302;-68
2023/08/11 08:09:20;;;;;;;6.60;3.70;;;;;;;21.90;59.11;101124.56;4895714;29;20244;-64
2023/08/11 08:11:48;;;;;;;6.00;3.23;;;;;;;22.03;58.80;101118.38;4897948;29;20232;-69
2023/08/11 08:14:18;;;;;;;5.65;3.15;;;;;;;22.13;58.59;101116.94;4899662;29;20210;-65
2023/08/11 08:16:46;;;;;;;7.77;3.60;;;;;;;22.29;58.43;101122.94;4899613;29;20213;-66
2023/08/11 08:19:16;;;;;;;6.82;3.47;;;;;;;22.40;58.58;101123.13;4897676;29;20247;-69
2023/08/11 08:21:46;;;;;;;7.20;3.60;;;;;;;22.55;58.02;101122.06;4896724;29;20217;-63
2023/08/11 08:24:15;;;;;;;6.75;3.42;;;;;;;22.66;56.97;101122.25;4896199;29;20287;-66
2023/08/11 08:26:43;;;;;;;6.30;3.65;;;;;;;22.81;55.02;101127.44;4896867;29;20587;-65
2023/08/11 08:29:11;;;;;;;4.82;3.25;;;;;;;22.93;55.30;101127.63;4897438;29;20232;-63
2023/08/11 08:31:41;;;;;;;15.30;3.40;;;;;;;23.05;55.26;101123.19;4897689;29;20214;-65
2023/08/11 08:34:09;;;;;;;8.10;3.40;;;;;;;23.16;55.20;101117.94;4895815;29;20257;-65
2023/08/11 08:36:37;;;;;;;5.82;3.83;;;;;;;23.25;54.02;101111.25;4896674;29;20260;-63
2023/08/11 08:39:06;;;;;;;9.18;3.45;;;;;;;23.38;54.16;101117.66;4894927;29;20911;-65
2023/08/11 08:41:39;;;;;;;9.35;4.57;;;;;;;23.52;52.47;101111.13;4896394;29;20296;-68
2023/08/11 08:44:07;;;;;;;9.07;4.18;;;;;;;23.54;52.99;101115.28;4899112;29;20212;-64
2023/08/11 08:46:35;;;;;;;6.88;4.22;;;;;;;23.66;52.81;101120.81;4898522;29;20692;-65
2023/08/11 08:49:12;;;;;;;8.27;3.83;;;;;;;23.77;52.61;101114.72;4899465;29;20248;-68
2023/08/11 08:51:41;;;;;;;9.95;3.97;;;;;;;23.89;53.05;101112.16;4898308;29;20209;-65
2023/08/11 08:54:09;;;;;;;6.07;3.38;;;;;;;24.11;50.65;101113.41;4896757;29;20574;-64
2023/08/11 08:56:38;;;;;;;7.63;3.60;;;;;;;24.18;50.39;101111.50;4896760;29;20238;-66
2023/08/11 08:59:06;;;;;;;9.70;3.25;;;;;;;24.30;50.78;101112.44;4895050;29;20217;-66
2023/08/11 09:01:35;;;;;;;10.00;3.58;;;;;;;24.47;50.63;101109.16;4896460;29;20664;-65
2023/08/11 09:04:05;;;;;;;7.28;4.13;;;;;;;24.55;51.64;101106.97;4896349;29;20221;-67
2023/08/11 09:06:36;;;;;;;10.20;3.53;;;;;;;24.68;50.75;101106.00;4896114;29;20205;-64
2023/08/11 09:09:04;;;;;;;9.13;3.50;;;;;;;24.76;50.06;101111.13;4897079;29;20743;-68
2023/08/11 09:11:32;;;;;;;6.18;3.25;;;;;;;24.92;48.11;101107.00;4894567;29;20297;-65
2023/08/11 09:14:03;;;;;;;9.63;3.25;;;;;;;25.01;48.73;101103.78;4894909;29;20260;-67
2023/08/11 09:16:34;;;;;;;9.75;3.42;;;;;;;25.15;47.60;101100.91;4897483;29;20216;-66
2023/08/11 09:19:02;;;;;;;9.38;3.78;;;;;;;25.27;47.66;101101.78;4899019;29;20794;-63
2023/08/11 09:21:31;;;;;;;10.68;3.70;;;;;;;25.39;48.56;101097.22;4895253;29;20300;-64
2023/08/11 09:24:00;;;;;;;8.40;3.28;;;;;;;25.47;49.34;101099.63;4898481;29;20256;-69
2023/08/11 09:26:28;;;;;;;5.60;3.55;;;;;;;25.56;49.37;101091.97;4896315;29;20231;-67
2023/08/11 09:28:56;;;;;;;10.45;3.17;;;;;;;25.71;47.59;101095.94;4895440;29;20240;-66
2023/08/11 09:31:25;;;;;;;12.88;3.38;;;;;;;25.86;47.62;101088.16;4898286;29;20319;-66
2023/08/11 09:33:53;;;;;;;7.85;3.45;;;;;;;26.00;47.52;101090.66;4897205;29;20386;-65
2023/08/11 09:36:21;;;;;;;12.27;3.70;;;;;;;26.16;46.97;101092.69;4897312;29;20814;-65
2023/08/11 09:38:50;;;;;;;7.95;3.20;;;;;;;26.20;47.16;101088.44;4896116;29;20327;-67
2023/08/11 09:41:19;;;;;;;8.38;3.25;;;;;;;26.25;48.06;101085.84;4896792;29;20770;-64
2023/08/11 09:43:48;;;;;;;12.68;4.30;;;;;;;26.41;46.49;101082.44;4896824;29;20706;-66
2023/08/11 09:46:16;;;;;;;9.48;4.22;;;;;;;26.49;46.43;101079.34;4896709;29;20300;-65
2023/08/11 09:48:54;;;;;;;12.68;4.15;;;;;;;26.56;46.68;101088.19;4894526;29;20324;-63
2023/08/11 09:51:22;;;;;;;7.85;3.97;;;;;;;26.65;47.48;101082.41;4895834;29;20221;-64
2023/08/11 09:53:50;;;;;;;7.70;3.88;;;;;;;26.81;47.05;101087.94;4897270;29;20236;-65
2023/08/11 09:56:22;;;;;;;14.90;6.82;;;;;;;26.98;45.17;101088.03;4897681;29;20292;-64
2023/08/11 09:58:52;;;;;;;14.10;6.05;;;;;;;27.02;45.64;101086.47;4896693;29;20224;-65
2023/08/11 10:01:21;;;;;;;9.27;6.55;;;;;;;27.17;45.45;101081.34;4895034;29;20202;-66
2023/08/11 10:03:49;;;;;;;11.60;6.25;;;;;;;27.31;44.94;101092.78;4895236;29;20711;-65
2023/08/11 10:06:22;;;;;;;9.93;7.00;;;;;;;27.48;45.05;101090.09;4895612;29;20205;-66
2023/08/11 10:08:51;;;;;;;12.98;7.00;;;;;;;27.54;45.30;101083.69;4894241;29;20229;-67
2023/08/11 10:11:25;;;;;;;14.00;7.75;;;;;;;27.63;44.10;101082.19;4898699;29;20218;-65
2023/08/11 10:13:56;;;;;;;19.00;7.78;;;;;;;27.69;44.36;101081.25;4900782;29;20209;-68
2023/08/11 10:16:25;;;;;;;20.02;10.82;;;;;;;27.89;43.25;101078.84;4899277;29;20213;-67
2023/08/11 10:18:56;;;;;;;14.90;7.53;;;;;;;28.02;43.68;101086.69;4898437;29;20204;-66
2023/08/11 10:21:25;;;;;;;16.85;11.55;;;;;;;28.03;44.03;101073.88;4899736;29;20265;-65
2023/08/11 10:23:53;;;;;;;18.67;13.25;;;;;;;28.18;43.92;101086.97;4901469;29;20212;-65
2023/08/11 10:26:24;;;;;;;22.58;13.93;;;;;;;28.43;43.18;101085.44;4899138;29;20289;-63
2023/08/11 10:28:53;;;;;;;17.88;11.40;;;;;;;28.62;42.67;101079.69;4902812;29;20221;-64
2023/08/11 10:31:24;;;;;;;13.40;9.18;;;;;;;28.74;41.37;101073.03;4899154;29;20218;-68
2023/08/11 10:33:54;;;;;;;15.50;10.82;;;;;;;28.66;42.46;101070.75;4897208;29;20482;-67
2023/08/11 10:36:23;;;;;;;14.95;10.05;;;;;;;28.70;42.45;101074.59;4905300;29;20218;-63
2023/08/11 10:39:03;;;;;;;18.15;10.32;;;;;;;28.88;41.66;101062.56;4905309;29;20338;-64
2023/08/11 10:41:32;;;;;;;14.50;9.00;;;;;;;28.88;41.84;101068.03;4906714;29;20241;-65
2023/08/11 10:44:00;;;;;;;14.55;8.40;;;;;;;28.98;42.58;101059.13;4908038;29;20205;-63
2023/08/11 10:46:31;;;;;;;18.27;10.15;;;;;;;29.10;42.05;101059.84;4908779;29;20218;-65
2023/08/11 10:49:19;;;;;;;16.73;8.52;;;;;;;29.08;42.35;101057.34;4903208;29;20225;-65
2023/08/11 10:51:47;;;;;;;12.75;8.82;;;;;;;29.33;40.57;101048.59;4904305;29;20217;-66
2023/08/11 10:54:26;;;;;;;14.05;7.70;;;;;;;29.35;41.66;101049.16;4907206;29;20205;-64
2023/08/11 10:56:55;;;;;;;10.85;6.47;;;;;;;29.51;40.67;101042.78;4906513;29;20267;-69
2023/08/11 10:59:24;;;;;;;13.90;7.00;;;;;;;29.61;41.64;101038.50;4901976;29;20220;-65
2023/08/11 11:01:54;;;;;;;15.25;7.22;;;;;;;29.80;39.26;101037.84;4903540;29;20213;-65
2023/08/11 11:04:23;;;;;;;13.13;7.20;;;;;;;30.07;38.32;101036.97;4899249;29;20217;-66
2023/08/11 11:06:51;;;;;;;10.32;6.25;;;;;;;30.26;38.74;101029.97;4898469;29;20213;-64
2023/08/11 11:09:20;;;;;;;10.15;5.22;;;;;;;30.52;37.33;101036.44;4900103;29;20237;-66
2023/08/11 11:11:51;;;;;;;8.40;4.97;;;;;;;30.80;37.43;101033.25;4899964;29;20208;-67
2023/08/11 11:14:21;;;;;;;8.07;4.30;;;;;;;30.97;37.32;101024.81;4900335;29;20291;-68
2023/08/11 11:16:49;;;;;;;6.95;4.28;;;;;;;31.20;37.15;101018.06;4898349;29;20213;-66
2023/08/11 11:19:17;;;;;;;8.65;4.20;;;;;;;31.20;36.47;101018.88;4896861;29;20552;-65
2023/08/11 11:21:47;;;;;;;10.50;3.78;;;;;;;31.48;36.77;101008.50;4900116;29;20299;-64
2023/08/11 11:24:15;;;;;;;8.18;4.03;;;;;;;31.54;36.45;101002.72;4899631;29;20205;-64
2023/08/11 11:26:43;;;;;;;7.72;4.00;;;;;;;31.74;35.47;101012.91;4898018;29;20593;-64
2023/08/11 11:29:11;;;;;;;6.78;3.50;;;;;;;31.99;35.28;101010.13;4899458;29;20759;-66
2023/08/11 11:31:41;;;;;;;7.30;3.63;;;;;;;32.09;35.03;101012.03;4900404;29;20287;-65